Time;durP1;ratioP1;P1;durP2;ratioP2;P2;SDS_P1;SDS_P2;PMS_P1;PMS_P2;Temp;Humidity;BMP_temperature;BMP_pressure;BME280_temperature;BME280_humidity;BME280_pressure;Samples;Min_cycle;Max_cycle;Signal;HPM_P1;HPM_P2
2022/04/09 00:00:24;;;;;;;3.53;1.30;;;;;;;;;;4939055;29;20252;-60
2022/04/09 00:02:50;;;;;;;2.65;1.08;;;;;;;;;;4938587;29;20220;-61
2022/04/09 00:05:16;;;;;;;5.60;1.30;;;;;;;;;;4938514;29;20172;-61
2022/04/09 00:07:43;;;;;;;3.38;1.50;;;;;;;;;;4938416;29;20244;-61
2022/04/09 00:10:09;;;;;;;4.93;1.20;;;;;;;;;;4938297;29;20199;-61
2022/04/09 00:12:36;;;;;;;5.28;0.82;;;;;;;;;;4938220;29;20610;-61
2022/04/09 00:15:02;;;;;;;2.08;0.90;;;;;;;;;;4938247;29;20173;-60
2022/04/09 00:17:28;;;;;;;7.38;1.25;;;;;;;;;;4938550;29;20191;-61
2022/04/09 00:19:53;;;;;;;4.88;1.25;;;;;;;;;;4938108;29;20200;-61
2022/04/09 00:22:20;;;;;;;3.40;0.98;;;;;;;;;;4938041;29;20521;-61
2022/04/09 00:24:46;;;;;;;5.72;1.10;;;;;;;;;;4938010;29;20610;-61
2022/04/09 00:27:13;;;;;;;2.65;1.15;;;;;;;;;;4938017;29;20184;-61
2022/04/09 00:29:39;;;;;;;4.57;1.63;;;;;;;;;;4938043;29;20228;-60
2022/04/09 00:32:05;;;;;;;3.30;1.17;;;;;;;;;;4937910;29;20216;-60
2022/04/09 00:34:31;;;;;;;4.47;1.20;;;;;;;;;;4937763;29;20169;-60
2022/04/09 00:36:57;;;;;;;4.47;1.38;;;;;;;;;;4937924;29;20173;-60
2022/04/09 00:39:24;;;;;;;1.83;1.17;;;;;;;;;;4937694;29;20177;-60
2022/04/09 00:41:50;;;;;;;4.10;1.15;;;;;;;;;;4952755;29;20173;-60
2022/04/09 00:44:21;;;;;;;7.85;1.60;;;;;;;;;;4937830;29;20614;-60
2022/04/09 00:46:47;;;;;;;5.07;1.10;;;;;;;;;;4938154;29;20176;-60
2022/04/09 00:49:14;;;;;;;3.45;1.35;;;;;;;;;;4937258;29;20216;-60
2022/04/09 00:51:41;;;;;;;8.02;1.48;;;;;;;;;;4937058;29;20553;-60
2022/04/09 00:54:08;;;;;;;3.22;1.42;;;;;;;;;;4937069;29;20165;-60
2022/04/09 00:56:37;;;;;;;3.30;1.23;;;;;;;;;;4937725;29;20183;-60
2022/04/09 00:59:06;;;;;;;3.92;1.15;;;;;;;;;;4945026;29;20257;-61
2022/04/09 01:01:33;;;;;;;3.92;1.05;;;;;;;;;;4957722;29;20167;-61
2022/04/09 01:03:59;;;;;;;3.70;1.33;;;;;;;;;;4938601;29;20179;-60
2022/04/09 01:06:25;;;;;;;6.63;1.42;;;;;;;;;;4937411;29;20173;-61
2022/04/09 01:08:51;;;;;;;4.10;1.38;;;;;;;;;;4937265;29;20184;-61
2022/04/09 01:11:17;;;;;;;3.47;1.13;;;;;;;;;;4937125;29;20489;-61
2022/04/09 01:13:44;;;;;;;6.85;1.50;;;;;;;;;;4937156;29;20165;-61
2022/04/09 01:16:10;;;;;;;5.55;1.42;;;;;;;;;;4937345;29;20161;-61
2022/04/09 01:18:36;;;;;;;6.78;1.50;;;;;;;;;;4936979;29;20704;-61
2022/04/09 01:21:03;;;;;;;3.67;1.05;;;;;;;;;;4937101;29;20256;-61
2022/04/09 01:23:30;;;;;;;3.53;1.17;;;;;;;;;;4936848;29;20619;-62
2022/04/09 01:25:57;;;;;;;6.07;1.70;;;;;;;;;;4936868;29;20165;-61
2022/04/09 01:28:22;;;;;;;6.47;1.40;;;;;;;;;;4936840;29;20176;-61
2022/04/09 01:30:48;;;;;;;5.97;1.30;;;;;;;;;;4936759;29;20188;-60
2022/04/09 01:33:17;;;;;;;5.25;1.42;;;;;;;;;;4936844;29;20165;-61
2022/04/09 01:35:44;;;;;;;2.67;1.17;;;;;;;;;;4936862;29;20188;-60
2022/04/09 01:38:10;;;;;;;7.78;1.90;;;;;;;;;;4936735;29;20165;-61
2022/04/09 01:40:36;;;;;;;2.22;1.00;;;;;;;;;;4936640;29;20173;-61
2022/04/09 01:43:02;;;;;;;7.43;1.52;;;;;;;;;;4936742;29;20911;-61
2022/04/09 01:45:28;;;;;;;5.70;1.70;;;;;;;;;;4936799;29;20184;-61
2022/04/09 01:47:54;;;;;;;3.75;1.35;;;;;;;;;;4936698;29;20173;-61
2022/04/09 01:50:21;;;;;;;5.03;1.33;;;;;;;;;;4936669;29;20284;-61
2022/04/09 01:52:47;;;;;;;3.45;1.33;;;;;;;;;;4936920;29;20177;-61
2022/04/09 01:55:13;;;;;;;2.58;1.27;;;;;;;;;;4936664;29;20511;-60
2022/04/09 01:57:39;;;;;;;5.03;1.60;;;;;;;;;;4936828;29;20161;-60
2022/04/09 02:00:07;;;;;;;7.43;1.88;;;;;;;;;;4936515;29;20177;-60
2022/04/09 02:02:33;;;;;;;4.28;1.42;;;;;;;;;;4936393;29;20185;-61
2022/04/09 02:04:59;;;;;;;5.90;1.45;;;;;;;;;;4936054;29;20228;-61
2022/04/09 02:07:27;;;;;;;6.00;1.70;;;;;;;;;;4936612;29;20235;-61
2022/04/09 02:09:53;;;;;;;8.65;1.83;;;;;;;;;;4951049;29;20208;-61
2022/04/09 02:12:19;;;;;;;10.05;1.92;;;;;;;;;;4936337;29;20164;-61
2022/04/09 02:14:45;;;;;;;6.35;1.70;;;;;;;;;;4936490;29;20199;-61
2022/04/09 02:17:11;;;;;;;6.30;1.65;;;;;;;;;;4936128;29;20613;-61
2022/04/09 02:19:38;;;;;;;4.25;1.35;;;;;;;;;;4936142;29;20172;-61
2022/04/09 02:22:04;;;;;;;4.18;1.50;;;;;;;;;;4936450;29;20184;-61
2022/04/09 02:24:30;;;;;;;6.55;1.92;;;;;;;;;;4936126;29;20248;-60
2022/04/09 02:26:56;;;;;;;3.72;1.30;;;;;;;;;;4936180;29;20208;-61
2022/04/09 02:29:22;;;;;;;7.07;1.40;;;;;;;;;;4935956;29;20585;-61
2022/04/09 02:31:48;;;;;;;5.20;1.48;;;;;;;;;;4951081;29;20169;-61
2022/04/09 02:34:14;;;;;;;7.15;1.60;;;;;;;;;;4935987;29;20165;-61
2022/04/09 02:36:40;;;;;;;5.15;1.25;;;;;;;;;;4936458;29;20539;-60
2022/04/09 02:39:06;;;;;;;7.15;1.67;;;;;;;;;;4936051;29;20312;-60
2022/04/09 02:41:32;;;;;;;6.85;1.95;;;;;;;;;;4937292;29;20235;-61
2022/04/09 02:43:58;;;;;;;11.57;1.83;;;;;;;;;;4937503;29;20232;-60
2022/04/09 02:46:25;;;;;;;8.60;2.30;;;;;;;;;;4936218;29;20586;-61
2022/04/09 02:48:51;;;;;;;6.03;1.58;;;;;;;;;;4937052;29;20173;-60
2022/04/09 02:51:17;;;;;;;5.15;1.60;;;;;;;;;;4935837;29;20251;-60
2022/04/09 02:53:43;;;;;;;4.00;1.48;;;;;;;;;;4939148;29;20621;-61
2022/04/09 02:56:09;;;;;;;7.05;1.73;;;;;;;;;;4935941;29;20169;-61
2022/04/09 02:58:35;;;;;;;6.25;1.60;;;;;;;;;;4951038;29;20169;-60
2022/04/09 03:01:01;;;;;;;6.97;1.67;;;;;;;;;;4938611;29;20316;-61
2022/04/09 03:03:27;;;;;;;9.85;2.05;;;;;;;;;;4937917;29;20505;-61
2022/04/09 03:05:53;;;;;;;9.52;1.65;;;;;;;;;;4935826;29;20173;-61
2022/04/09 03:08:19;;;;;;;6.00;1.60;;;;;;;;;;4935856;29;20169;-61
2022/04/09 03:10:45;;;;;;;8.00;2.53;;;;;;;;;;4935842;29;20651;-61
2022/04/09 03:13:11;;;;;;;6.63;1.95;;;;;;;;;;4936109;29;20538;-61
2022/04/09 03:15:37;;;;;;;8.45;1.73;;;;;;;;;;4936636;29;20165;-61
2022/04/09 03:18:03;;;;;;;6.10;1.63;;;;;;;;;;4939355;29;20207;-61
2022/04/09 03:20:29;;;;;;;7.13;2.08;;;;;;;;;;4939247;29;20666;-61
2022/04/09 03:22:55;;;;;;;10.30;1.65;;;;;;;;;;4939260;29;20629;-61
2022/04/09 03:25:20;;;;;;;7.97;2.22;;;;;;;;;;4939159;29;20165;-61
2022/04/09 03:27:46;;;;;;;5.72;1.63;;;;;;;;;;4939311;29;20204;-61
2022/04/09 03:30:12;;;;;;;5.88;1.63;;;;;;;;;;4939161;29;20189;-61
2022/04/09 03:32:38;;;;;;;9.25;2.08;;;;;;;;;;4939048;29;20236;-60
2022/04/09 03:35:05;;;;;;;7.13;1.85;;;;;;;;;;4939120;29;20208;-61
2022/04/09 03:37:31;;;;;;;10.25;2.20;;;;;;;;;;4939223;29;20240;-60
2022/04/09 03:39:57;;;;;;;7.97;2.17;;;;;;;;;;4939112;29;20177;-60
2022/04/09 03:42:23;;;;;;;6.63;1.85;;;;;;;;;;4938933;29;20251;-60
2022/04/09 03:44:49;;;;;;;5.78;1.90;;;;;;;;;;4939012;29;20197;-60
2022/04/09 03:47:15;;;;;;;8.75;1.88;;;;;;;;;;4939073;29;20580;-60
2022/04/09 03:49:41;;;;;;;9.57;2.05;;;;;;;;;;4939272;29;20400;-60
2022/04/09 03:52:07;;;;;;;7.30;1.58;;;;;;;;;;4944655;29;20169;-61
2022/04/09 03:54:35;;;;;;;7.50;2.42;;;;;;;;;;4956152;29;20547;-61
2022/04/09 03:57:03;;;;;;;9.52;2.20;;;;;;;;;;4940166;29;20559;-59
2022/04/09 03:59:28;;;;;;;10.98;2.28;;;;;;;;;;4938962;29;20173;-61
2022/04/09 04:01:54;;;;;;;12.23;1.63;;;;;;;;;;4938992;29;20484;-61
2022/04/09 04:04:21;;;;;;;6.38;2.00;;;;;;;;;;4939797;29;20185;-60
2022/04/09 04:06:48;;;;;;;10.85;2.35;;;;;;;;;;4939122;29;20177;-61
2022/04/09 04:09:16;;;;;;;6.43;2.17;;;;;;;;;;4938703;29;20609;-60
2022/04/09 04:11:42;;;;;;;9.18;1.83;;;;;;;;;;4956773;29;20566;-61
2022/04/09 04:14:09;;;;;;;11.60;2.05;;;;;;;;;;4941834;29;20161;-61
2022/04/09 04:16:35;;;;;;;6.40;2.03;;;;;;;;;;4942173;29;20224;-61
2022/04/09 04:19:01;;;;;;;8.00;1.92;;;;;;;;;;4941713;29;20172;-61
2022/04/09 04:21:27;;;;;;;10.25;2.72;;;;;;;;;;4942584;29;20261;-61
2022/04/09 04:23:53;;;;;;;12.95;2.90;;;;;;;;;;4942092;29;20508;-61
2022/04/09 04:26:19;;;;;;;6.07;2.33;;;;;;;;;;4940977;29;20176;-62
2022/04/09 04:28:48;;;;;;;5.95;1.60;;;;;;;;;;4941762;29;20508;-60
2022/04/09 04:31:16;;;;;;;7.15;1.92;;;;;;;;;;4940205;29;20196;-61
2022/04/09 04:33:42;;;;;;;5.95;1.70;;;;;;;;;;4940650;29;20183;-61
2022/04/09 04:36:08;;;;;;;5.05;1.83;;;;;;;;;;4939905;29;20169;-61
2022/04/09 04:38:34;;;;;;;7.70;2.10;;;;;;;;;;4940266;29;20172;-61
2022/04/09 04:41:01;;;;;;;9.73;1.67;;;;;;;;;;4939904;29;20263;-61
2022/04/09 04:43:26;;;;;;;7.82;1.67;;;;;;;;;;4938568;29;20181;-61
2022/04/09 04:45:52;;;;;;;11.90;2.35;;;;;;;;;;4937722;29;20508;-61
2022/04/09 04:48:21;;;;;;;13.02;2.05;;;;;;;;;;4937688;29;20188;-61
2022/04/09 04:50:47;;;;;;;8.10;2.05;;;;;;;;;;4937471;29;20189;-60
2022/04/09 04:53:13;;;;;;;10.00;2.72;;;;;;;;;;4938482;29;20474;-59
2022/04/09 04:55:39;;;;;;;10.63;2.30;;;;;;;;;;4938105;29;20224;-61
2022/04/09 04:58:05;;;;;;;5.22;2.08;;;;;;;;;;4938162;29;20173;-61
2022/04/09 05:00:31;;;;;;;4.85;1.42;;;;;;;;;;4938235;29;20267;-60
2022/04/09 05:02:58;;;;;;;10.38;2.10;;;;;;;;;;4938009;29;20169;-61
2022/04/09 05:05:24;;;;;;;9.13;1.95;;;;;;;;;;4937910;29;20180;-61
2022/04/09 05:07:50;;;;;;;6.75;2.25;;;;;;;;;;4937514;29;20173;-61
2022/04/09 05:10:17;;;;;;;5.10;1.75;;;;;;;;;;4937882;29;20220;-61
2022/04/09 05:12:44;;;;;;;10.63;2.17;;;;;;;;;;4938483;29;20192;-61
2022/04/09 05:15:12;;;;;;;8.40;1.77;;;;;;;;;;4938687;29;20165;-61
2022/04/09 05:17:38;;;;;;;8.40;2.17;;;;;;;;;;4957272;29;20164;-62
2022/04/09 05:20:06;;;;;;;15.35;2.17;;;;;;;;;;4956887;29;20197;-62
2022/04/09 05:22:32;;;;;;;8.75;2.40;;;;;;;;;;4942233;29;20184;-61
2022/04/09 05:24:58;;;;;;;6.97;2.00;;;;;;;;;;4937129;29;20256;-62
2022/04/09 05:27:24;;;;;;;12.23;2.22;;;;;;;;;;4937273;29;20172;-61
2022/04/09 05:29:50;;;;;;;10.32;2.42;;;;;;;;;;4936926;29;20526;-62
2022/04/09 05:32:17;;;;;;;12.38;2.10;;;;;;;;;;4937230;29;20590;-62
2022/04/09 05:34:43;;;;;;;7.95;1.95;;;;;;;;;;4936789;29;20180;-62
2022/04/09 05:37:09;;;;;;;6.07;1.77;;;;;;;;;;4936810;29;20231;-60
2022/04/09 05:39:35;;;;;;;4.22;1.70;;;;;;;;;;4936692;29;20198;-61
2022/04/09 05:42:01;;;;;;;4.30;1.63;;;;;;;;;;4936986;29;20676;-61
2022/04/09 05:44:28;;;;;;;6.38;1.50;;;;;;;;;;4936805;29;20593;-61
2022/04/09 05:46:53;;;;;;;10.63;2.00;;;;;;;;;;4936976;29;20184;-61
2022/04/09 05:49:20;;;;;;;8.80;1.88;;;;;;;;;;4936743;29;20228;-61
2022/04/09 05:51:47;;;;;;;7.30;1.70;;;;;;;;;;4936917;29;20585;-60
2022/04/09 05:54:13;;;;;;;5.07;1.70;;;;;;;;;;4937161;29;20601;-61
2022/04/09 05:56:39;;;;;;;7.43;1.80;;;;;;;;;;4936636;29;20232;-62
2022/04/09 05:59:05;;;;;;;5.30;1.25;;;;;;;;;;4936791;29;20172;-61
2022/04/09 06:01:30;;;;;;;9.02;2.10;;;;;;;;;;4936727;29;20177;-62
2022/04/09 06:03:57;;;;;;;6.53;1.90;;;;;;;;;;4936603;29;20181;-61
2022/04/09 06:06:23;;;;;;;7.00;1.65;;;;;;;;;;4937047;29;20181;-61
2022/04/09 06:08:49;;;;;;;8.98;1.95;;;;;;;;;;4951432;29;20196;-62
2022/04/09 06:11:15;;;;;;;7.20;1.95;;;;;;;;;;4936718;29;20288;-62
2022/04/09 06:13:41;;;;;;;6.22;1.63;;;;;;;;;;4936592;29;20182;-62
2022/04/09 06:16:09;;;;;;;8.85;1.77;;;;;;;;;;4945509;29;20238;-61
2022/04/09 06:18:38;;;;;;;6.65;1.45;;;;;;;;;;4954612;29;20184;-63
2022/04/09 06:21:05;;;;;;;5.07;1.67;;;;;;;;;;4937802;29;20177;-63
2022/04/09 06:23:31;;;;;;;6.07;1.77;;;;;;;;;;4936339;29;20176;-61
2022/04/09 06:25:57;;;;;;;6.05;1.58;;;;;;;;;;4943454;29;20176;-63
2022/04/09 06:28:23;;;;;;;4.47;1.40;;;;;;;;;;4951543;29;20609;-62
2022/04/09 06:30:49;;;;;;;4.50;1.60;;;;;;;;;;4958127;29;20199;-60
2022/04/09 06:33:15;;;;;;;3.20;1.30;;;;;;;;;;4936714;29;20203;-62
2022/04/09 06:35:41;;;;;;;4.30;1.52;;;;;;;;;;4936429;29;20179;-62
2022/04/09 06:38:06;;;;;;;5.78;1.60;;;;;;;;;;4936290;29;20164;-62
2022/04/09 06:40:32;;;;;;;4.20;1.30;;;;;;;;;;4951362;29;20240;-61
2022/04/09 06:42:59;;;;;;;4.65;1.55;;;;;;;;;;4936157;29;20572;-59
2022/04/09 06:45:25;;;;;;;6.18;1.15;;;;;;;;;;4936705;29;20176;-61
2022/04/09 06:47:51;;;;;;;4.57;1.63;;;;;;;;;;4936779;29;20180;-62
2022/04/09 06:50:17;;;;;;;7.20;1.60;;;;;;;;;;4936350;29;20208;-61
2022/04/09 06:52:43;;;;;;;5.65;2.13;;;;;;;;;;4939896;29;20201;-62
2022/04/09 06:55:10;;;;;;;7.18;2.00;;;;;;;;;;4940200;29;20193;-62
2022/04/09 06:57:38;;;;;;;5.07;1.88;;;;;;;;;;4940451;29;20176;-62
2022/04/09 07:00:05;;;;;;;6.07;1.65;;;;;;;;;;4940117;29;20553;-60
2022/04/09 07:02:31;;;;;;;7.55;1.80;;;;;;;;;;4940130;29;20526;-62
2022/04/09 07:04:56;;;;;;;5.90;1.88;;;;;;;;;;4939758;29;20200;-63
2022/04/09 07:07:23;;;;;;;7.03;1.98;;;;;;;;;;4939878;29;20516;-61
2022/04/09 07:09:49;;;;;;;4.63;1.63;;;;;;;;;;4939879;29;20204;-62
2022/04/09 07:12:15;;;;;;;4.22;1.52;;;;;;;;;;4939787;29;20235;-61
2022/04/09 07:14:41;;;;;;;4.28;1.33;;;;;;;;;;4939813;29;20251;-62
2022/04/09 07:17:07;;;;;;;5.95;1.40;;;;;;;;;;4939471;29;20185;-62
2022/04/09 07:19:33;;;;;;;9.95;1.70;;;;;;;;;;4939576;29;20320;-61
2022/04/09 07:21:59;;;;;;;7.07;1.70;;;;;;;;;;4939387;29;20657;-62
2022/04/09 07:24:25;;;;;;;6.35;2.05;;;;;;;;;;4939095;29;20180;-61
2022/04/09 07:26:51;;;;;;;2.88;1.17;;;;;;;;;;4939183;29;20275;-61
2022/04/09 07:29:18;;;;;;;6.43;1.65;;;;;;;;;;4939041;29;20184;-61
2022/04/09 07:31:47;;;;;;;2.88;1.02;;;;;;;;;;4939250;29;20251;-61
2022/04/09 07:34:13;;;;;;;3.92;1.38;;;;;;;;;;4939250;29;20173;-63
2022/04/09 07:36:38;;;;;;;3.80;1.10;;;;;;;;;;4939108;29;20161;-61
2022/04/09 07:39:06;;;;;;;1.42;1.00;;;;;;;;;;4939040;29;20180;-61
2022/04/09 07:41:32;;;;;;;7.25;1.30;;;;;;;;;;4939000;29;20180;-61
2022/04/09 07:43:58;;;;;;;2.88;0.95;;;;;;;;;;4939165;29;20228;-61
2022/04/09 07:46:24;;;;;;;2.40;0.95;;;;;;;;;;4939333;29;20177;-61
2022/04/09 07:48:50;;;;;;;4.82;1.05;;;;;;;;;;4939039;29;20172;-60
2022/04/09 07:51:16;;;;;;;2.45;0.77;;;;;;;;;;4938898;29;20203;-59
2022/04/09 07:53:42;;;;;;;3.95;0.93;;;;;;;;;;4939004;29;20538;-62
2022/04/09 07:56:08;;;;;;;2.58;0.90;;;;;;;;;;4939041;29;20515;-62
2022/04/09 07:58:34;;;;;;;2.28;0.88;;;;;;;;;;4938773;29;20193;-62
2022/04/09 08:01:00;;;;;;;2.58;0.90;;;;;;;;;;4938343;29;20169;-63
2022/04/09 08:03:26;;;;;;;4.95;1.00;;;;;;;;;;4938387;29;20188;-62
2022/04/09 08:05:52;;;;;;;3.15;0.88;;;;;;;;;;4938694;29;20177;-61
2022/04/09 08:08:18;;;;;;;3.25;1.00;;;;;;;;;;4938833;29;20173;-62
2022/04/09 08:10:44;;;;;;;5.57;0.95;;;;;;;;;;4938552;29;20266;-62
2022/04/09 08:13:10;;;;;;;5.35;1.20;;;;;;;;;;4938350;29;20503;-60
2022/04/09 08:15:37;;;;;;;3.50;1.25;;;;;;;;;;4938373;29;20613;-61
2022/04/09 08:18:03;;;;;;;3.83;1.08;;;;;;;;;;4938214;29;20331;-61
2022/04/09 08:20:30;;;;;;;5.03;1.33;;;;;;;;;;4938673;29;20172;-61
2022/04/09 08:22:56;;;;;;;2.97;1.23;;;;;;;;;;4938412;29;20191;-61
2022/04/09 08:25:22;;;;;;;2.55;1.38;;;;;;;;;;4938370;29;20263;-61
2022/04/09 08:27:52;;;;;;;4.10;1.10;;;;;;;;;;4938350;29;20173;-60
2022/04/09 08:30:18;;;;;;;4.05;1.20;;;;;;;;;;4937951;29;20185;-61
2022/04/09 08:32:44;;;;;;;2.50;0.80;;;;;;;;;;4938407;29;20173;-61
2022/04/09 08:35:10;;;;;;;6.70;1.50;;;;;;;;;;4937983;29;20180;-61
2022/04/09 08:37:36;;;;;;;3.42;1.17;;;;;;;;;;4938031;29;20173;-60
2022/04/09 08:40:02;;;;;;;2.53;1.08;;;;;;;;;;4938015;29;20184;-61
2022/04/09 08:42:28;;;;;;;5.25;1.80;;;;;;;;;;4938049;29;20176;-61
2022/04/09 08:44:54;;;;;;;4.72;1.45;;;;;;;;;;4938282;29;20172;-60
2022/04/09 08:47:20;;;;;;;5.30;1.35;;;;;;;;;;4938091;29;20728;-60
2022/04/09 08:49:47;;;;;;;3.90;1.20;;;;;;;;;;4938067;29;20322;-61
2022/04/09 08:52:14;;;;;;;7.38;1.65;;;;;;;;;;4938056;29;20169;-59
2022/04/09 08:54:43;;;;;;;4.90;1.38;;;;;;;;;;4939224;29;20192;-60
2022/04/09 08:57:09;;;;;;;5.03;1.40;;;;;;;;;;4938407;29;20231;-61
2022/04/09 08:59:35;;;;;;;7.50;1.40;;;;;;;;;;4938191;29;20180;-61
2022/04/09 09:02:01;;;;;;;6.80;1.58;;;;;;;;;;4938084;29;20533;-60
2022/04/09 09:04:27;;;;;;;6.45;1.23;;;;;;;;;;4937840;29;20676;-61
2022/04/09 09:06:53;;;;;;;6.40;1.52;;;;;;;;;;4937970;29;20304;-61
2022/04/09 09:09:29;;;;;;;3.63;1.45;;;;;;;;;;4937775;29;20312;-61
2022/04/09 09:11:56;;;;;;;4.85;1.25;;;;;;;;;;4937953;29;20169;-61
2022/04/09 09:14:29;;;;;;;3.15;1.08;;;;;;;;;;4937196;29;20188;-60
2022/04/09 09:16:55;;;;;;;5.65;1.27;;;;;;;;;;4937721;29;20192;-61
2022/04/09 09:19:21;;;;;;;5.28;1.17;;;;;;;;;;4937467;29;20158;-60
2022/04/09 09:21:54;;;;;;;4.15;1.40;;;;;;;;;;4937421;29;20237;-61
2022/04/09 09:24:20;;;;;;;3.47;1.13;;;;;;;;;;4937745;29;20172;-59
2022/04/09 09:26:46;;;;;;;4.85;1.10;;;;;;;;;;4937895;29;20668;-61
2022/04/09 09:29:23;;;;;;;4.25;1.20;;;;;;;;;;4937605;29;20256;-60
2022/04/09 09:31:50;;;;;;;2.60;1.02;;;;;;;;;;4937756;29;20173;-60
2022/04/09 09:34:19;;;;;;;3.78;1.00;;;;;;;;;;4937434;29;20520;-61
2022/04/09 09:36:46;;;;;;;2.17;0.80;;;;;;;;;;4937642;29;20197;-61
2022/04/09 09:39:16;;;;;;;2.78;1.13;;;;;;;;;;4937402;29;20601;-61
2022/04/09 09:41:55;;;;;;;2.30;0.80;;;;;;;;;;4937616;29;20193;-61
2022/04/09 09:44:22;;;;;;;2.35;0.80;;;;;;;;;;4952327;29;20188;-60
2022/04/09 09:46:49;;;;;;;3.78;1.00;;;;;;;;;;4937256;29;20232;-60
2022/04/09 09:49:15;;;;;;;2.40;1.00;;;;;;;;;;4936794;29;20623;-61
2022/04/09 09:51:42;;;;;;;1.58;0.82;;;;;;;;;;4937229;29;20256;-61
2022/04/09 09:54:13;;;;;;;1.65;0.95;;;;;;;;;;4936842;29;20613;-60
2022/04/09 09:56:42;;;;;;;3.63;1.02;;;;;;;;;;4937220;29;20172;-60
2022/04/09 09:59:09;;;;;;;2.63;1.13;;;;;;;;;;4937440;29;20247;-60
2022/04/09 10:01:36;;;;;;;4.65;0.88;;;;;;;;;;4937156;29;20173;-60
2022/04/09 10:04:02;;;;;;;1.95;0.65;;;;;;;;;;4937807;29;20637;-62
2022/04/09 10:06:29;;;;;;;1.35;0.73;;;;;;;;;;4938749;29;20228;-62
2022/04/09 10:08:55;;;;;;;3.08;0.70;;;;;;;;;;4937397;29;20648;-62
2022/04/09 10:11:22;;;;;;;4.38;1.02;;;;;;;;;;4936990;29;20526;-62
2022/04/09 10:13:48;;;;;;;2.72;1.10;;;;;;;;;;4938165;29;20169;-62
2022/04/09 10:16:21;;;;;;;1.13;0.80;;;;;;;;;;4938168;29;20621;-62
2022/04/09 10:18:48;;;;;;;3.47;0.85;;;;;;;;;;4938520;29;20805;-61
2022/04/09 10:21:15;;;;;;;0.98;0.57;;;;;;;;;;4937166;29;20173;-61
2022/04/09 10:23:41;;;;;;;0.90;0.57;;;;;;;;;;4937136;29;20177;-61
2022/04/09 10:26:07;;;;;;;2.50;0.90;;;;;;;;;;4940364;29;20176;-61
2022/04/09 10:28:36;;;;;;;2.88;0.65;;;;;;;;;;4941974;29;20185;-61
2022/04/09 10:31:03;;;;;;;3.03;0.80;;;;;;;;;;4941510;29;20531;-61
2022/04/09 10:33:36;;;;;;;4.32;0.80;;;;;;;;;;4942362;29;20256;-61
2022/04/09 10:36:02;;;;;;;3.65;1.00;;;;;;;;;;4942109;29;20169;-61
2022/04/09 10:38:28;;;;;;;2.30;1.02;;;;;;;;;;4942603;29;20165;-60
2022/04/09 10:40:57;;;;;;;1.80;0.90;;;;;;;;;;4942261;29;20172;-61
2022/04/09 10:43:23;;;;;;;2.95;1.08;;;;;;;;;;4941730;29;20183;-62
2022/04/09 10:46:09;;;;;;;3.92;1.00;;;;;;;;;;4942126;29;20169;-61
2022/04/09 10:48:35;;;;;;;4.88;1.23;;;;;;;;;;4942551;29;20165;-60
2022/04/09 10:51:05;;;;;;;2.85;1.02;;;;;;;;;;4941971;29;20193;-61
2022/04/09 10:53:32;;;;;;;2.67;0.88;;;;;;;;;;4942040;29;20500;-62
2022/04/09 10:56:11;;;;;;;2.42;0.82;;;;;;;;;;4943021;29;20169;-61
2022/04/09 10:58:56;;;;;;;4.38;1.00;;;;;;;;;;4944037;29;20172;-61
2022/04/09 11:01:40;;;;;;;4.13;0.98;;;;;;;;;;4943296;29;20177;-62
2022/04/09 11:04:25;;;;;;;1.92;0.98;;;;;;;;;;4942798;29;20173;-63
2022/04/09 11:07:09;;;;;;;2.05;0.90;;;;;;;;;;4942214;29;20177;-61
2022/04/09 11:09:41;;;;;;;3.58;1.05;;;;;;;;;;4945402;29;20185;-63
2022/04/09 11:12:07;;;;;;;5.85;1.10;;;;;;;;;;4944868;29;20177;-62
2022/04/09 11:15:02;;;;;;;1.75;0.85;;;;;;;;;;4945184;29;20562;-62
2022/04/09 11:17:28;;;;;;;5.72;0.90;;;;;;;;;;4940015;29;20275;-63
2022/04/09 11:19:55;;;;;;;1.95;0.80;;;;;;;;;;4947353;29;20185;-61
2022/04/09 11:22:22;;;;;;;1.35;0.80;;;;;;;;;;4944073;29;20180;-63
2022/04/09 11:24:47;;;;;;;3.25;0.80;;;;;;;;;;4943070;29;20164;-61
2022/04/09 11:27:13;;;;;;;1.40;0.70;;;;;;;;;;4949122;29;20204;-63
2022/04/09 11:29:41;;;;;;;2.95;0.77;;;;;;;;;;4953116;29;20235;-63
2022/04/09 11:32:07;;;;;;;2.60;0.90;;;;;;;;;;4949047;29;20157;-63
2022/04/09 11:34:53;;;;;;;1.50;0.70;;;;;;;;;;4949730;29;20240;-61
2022/04/09 11:37:18;;;;;;;1.88;0.70;;;;;;;;;;4954322;29;20175;-62
2022/04/09 11:39:45;;;;;;;2.63;0.88;;;;;;;;;;4941599;29;20268;-61
2022/04/09 11:42:11;;;;;;;3.00;0.90;;;;;;;;;;4940038;29;20261;-61
2022/04/09 11:44:40;;;;;;;1.73;1.00;;;;;;;;;;4940387;29;20169;-60
2022/04/09 11:47:08;;;;;;;4.80;0.90;;;;;;;;;;4939646;29;20173;-61
2022/04/09 11:49:34;;;;;;;2.13;0.80;;;;;;;;;;4939946;29;20181;-61
2022/04/09 11:52:00;;;;;;;1.92;0.88;;;;;;;;;;4960950;29;20188;-61
2022/04/09 11:54:30;;;;;;;2.78;0.70;;;;;;;;;;4939562;29;20263;-61
2022/04/09 11:56:56;;;;;;;1.35;0.60;;;;;;;;;;4954312;29;20515;-63
2022/04/09 11:59:23;;;;;;;2.55;0.60;;;;;;;;;;4939273;29;20176;-61
2022/04/09 12:01:48;;;;;;;1.10;0.68;;;;;;;;;;4938890;29;20173;-60
2022/04/09 12:04:15;;;;;;;1.27;0.40;;;;;;;;;;4938807;29;20528;-61
2022/04/09 12:06:41;;;;;;;0.65;0.30;;;;;;;;;;4938737;29;20169;-61
2022/04/09 12:09:07;;;;;;;2.00;0.50;;;;;;;;;;4938982;29;20173;-61
2022/04/09 12:11:33;;;;;;;3.42;2.03;;;;;;;;;;4938722;29;20205;-61
2022/04/09 12:14:09;;;;;;;0.68;0.40;;;;;;;;;;4938801;29;20357;-61
2022/04/09 12:16:39;;;;;;;1.38;0.32;;;;;;;;;;4938461;29;20244;-61
2022/04/09 12:19:06;;;;;;;0.30;0.30;;;;;;;;;;4938828;29;20514;-60
2022/04/09 12:21:32;;;;;;;0.60;0.40;;;;;;;;;;4940010;29;20187;-61
2022/04/09 12:24:05;;;;;;;1.25;0.20;;;;;;;;;;4939779;29;20177;-61
2022/04/09 12:26:31;;;;;;;1.95;0.30;;;;;;;;;;4939946;29;20173;-61
2022/04/09 12:29:07;;;;;;;1.40;0.40;;;;;;;;;;4938223;29;20169;-61
2022/04/09 12:31:33;;;;;;;4.38;0.73;;;;;;;;;;4938272;29;20196;-61
2022/04/09 12:34:00;;;;;;;1.63;0.50;;;;;;;;;;4938273;29;20611;-61
2022/04/09 12:36:26;;;;;;;1.77;0.95;;;;;;;;;;4938329;29;20169;-60
2022/04/09 12:38:52;;;;;;;2.40;0.80;;;;;;;;;;4938677;29;20565;-60
2022/04/09 12:41:17;;;;;;;4.25;0.93;;;;;;;;;;4938593;29;20177;-61
2022/04/09 12:43:43;;;;;;;2.25;0.57;;;;;;;;;;4938081;29;20165;-60
2022/04/09 12:46:13;;;;;;;2.72;0.63;;;;;;;;;;4938075;29;20621;-61
2022/04/09 12:48:43;;;;;;;4.35;1.20;;;;;;;;;;4938208;29;20165;-60
2022/04/09 12:51:11;;;;;;;1.88;0.80;;;;;;;;;;4937775;29;20205;-60
2022/04/09 12:53:37;;;;;;;1.80;0.68;;;;;;;;;;4938700;29;20176;-61
2022/04/09 12:56:04;;;;;;;2.33;0.85;;;;;;;;;;4938076;29;20235;-61
2022/04/09 12:58:30;;;;;;;2.55;0.77;;;;;;;;;;4938351;29;20175;-61
2022/04/09 13:00:57;;;;;;;2.28;0.80;;;;;;;;;;4939043;29;20503;-61
2022/04/09 13:03:22;;;;;;;3.75;0.80;;;;;;;;;;4938654;29;20222;-61
2022/04/09 13:05:48;;;;;;;2.75;0.90;;;;;;;;;;4938467;29;20589;-61
2022/04/09 13:08:15;;;;;;;0.82;0.70;;;;;;;;;;4937695;29;20173;-60
2022/04/09 13:10:41;;;;;;;2.58;0.80;;;;;;;;;;4938073;29;20224;-60
2022/04/09 13:13:07;;;;;;;1.83;0.73;;;;;;;;;;4938227;29;20644;-60
2022/04/09 13:15:33;;;;;;;2.42;0.77;;;;;;;;;;4938372;29;20168;-60
2022/04/09 13:17:59;;;;;;;5.18;0.85;;;;;;;;;;4938153;29;20189;-61
2022/04/09 13:20:25;;;;;;;2.25;0.80;;;;;;;;;;4938302;29;20180;-60
2022/04/09 13:22:51;;;;;;;4.70;1.17;;;;;;;;;;4937783;29;20184;-60
2022/04/09 13:25:19;;;;;;;3.92;1.00;;;;;;;;;;4937274;29;20207;-60
2022/04/09 13:27:47;;;;;;;3.00;1.10;;;;;;;;;;4937776;29;20203;-60
2022/04/09 13:30:13;;;;;;;5.07;1.33;;;;;;;;;;4937045;29;20641;-59
2022/04/09 13:32:39;;;;;;;4.68;1.05;;;;;;;;;;4937291;29;20384;-59
2022/04/09 13:35:06;;;;;;;5.32;1.15;;;;;;;;;;4937090;29;20215;-60
2022/04/09 13:37:32;;;;;;;2.83;1.00;;;;;;;;;;4936935;29;20279;-60
2022/04/09 13:39:57;;;;;;;6.68;1.73;;;;;;;;;;4937291;29;20184;-59
2022/04/09 13:42:24;;;;;;;4.65;1.15;;;;;;;;;;4937353;29;20272;-59
2022/04/09 13:44:49;;;;;;;3.53;1.33;;;;;;;;;;4937468;29;20201;-60
2022/04/09 13:47:15;;;;;;;5.57;1.35;;;;;;;;;;4937228;29;20173;-60
2022/04/09 13:49:42;;;;;;;7.07;1.50;;;;;;;;;;4936858;29;20179;-61
2022/04/09 13:52:09;;;;;;;5.13;1.38;;;;;;;;;;4936882;29;20196;-61
2022/04/09 13:54:35;;;;;;;2.97;1.02;;;;;;;;;;4936668;29;20169;-61
2022/04/09 13:57:01;;;;;;;1.95;0.95;;;;;;;;;;4936659;29;20164;-61
2022/04/09 13:59:27;;;;;;;5.35;1.00;;;;;;;;;;4936776;29;20356;-61
2022/04/09 14:01:53;;;;;;;3.20;1.00;;;;;;;;;;4936926;29;20493;-61
2022/04/09 14:04:19;;;;;;;3.10;0.70;;;;;;;;;;4936723;29;20169;-61
2022/04/09 14:06:45;;;;;;;3.42;0.70;;;;;;;;;;4936787;29;20169;-61
2022/04/09 14:09:11;;;;;;;4.75;1.20;;;;;;;;;;4937056;29;20259;-61
2022/04/09 14:11:37;;;;;;;2.20;0.70;;;;;;;;;;4936437;29;20669;-61
2022/04/09 14:14:03;;;;;;;4.30;0.70;;;;;;;;;;4951380;29;20169;-61
2022/04/09 14:16:29;;;;;;;1.92;0.47;;;;;;;;;;4936220;29;20180;-60
2022/04/09 14:18:55;;;;;;;6.70;0.98;;;;;;;;;;4936308;29;20161;-61
2022/04/09 14:21:21;;;;;;;6.10;0.85;;;;;;;;;;4936327;29;20179;-61
2022/04/09 14:23:47;;;;;;;4.45;1.13;;;;;;;;;;4936349;29;20617;-61
2022/04/09 14:26:13;;;;;;;3.17;1.10;;;;;;;;;;4936929;29;20184;-62
2022/04/09 14:28:39;;;;;;;4.28;0.80;;;;;;;;;;4936484;29;20168;-61
2022/04/09 14:31:06;;;;;;;4.85;1.10;;;;;;;;;;4936232;29;20659;-62
2022/04/09 14:33:33;;;;;;;6.05;1.50;;;;;;;;;;4936423;29;20275;-60
2022/04/09 14:35:58;;;;;;;3.67;1.00;;;;;;;;;;4936598;29;20172;-61
2022/04/09 14:38:24;;;;;;;6.05;1.00;;;;;;;;;;4936040;29;20175;-61
2022/04/09 14:40:50;;;;;;;7.38;1.63;;;;;;;;;;4936069;29;20236;-61